Time;durP1;ratioP1;P1;durP2;ratioP2;P2;SDS_P1;SDS_P2;PMS_P1;PMS_P2;Temp;Humidity;BMP_temperature;BMP_pressure;BME280_temperature;BME280_humidity;BME280_pressure;Samples;Min_cycle;Max_cycle;Signal;HPM_P1;HPM_P2
2022/01/12 00:01:10;;;;;;;5.18;3.70;;;;;;;-2.79;59.21;94350.78;5024670;28;20467;-72
2022/01/12 00:03:45;;;;;;;5.55;4.15;;;;;;;-3.04;59.91;94332.63;5013653;28;20044;-73
2022/01/12 00:06:12;;;;;;;7.22;3.92;;;;;;;-2.30;58.66;94339.38;5016649;28;20044;-71
2022/01/12 00:08:37;;;;;;;9.05;5.00;;;;;;;-1.57;56.78;94339.91;5014829;28;20054;-72
2022/01/12 00:11:05;;;;;;;8.02;4.78;;;;;;;-1.19;56.11;94346.50;5023624;28;20279;-74
2022/01/12 00:13:32;;;;;;;5.97;4.18;;;;;;;-1.85;56.37;94343.13;5010493;28;20033;-72
2022/01/12 00:15:58;;;;;;;7.30;3.50;;;;;;;-1.70;55.67;94318.47;5013499;28;20064;-72
2022/01/12 00:18:23;;;;;;;7.70;4.30;;;;;;;-1.97;56.21;94344.13;5015361;28;20108;-71
2022/01/12 00:20:55;;;;;;;6.88;3.90;;;;;;;-1.65;55.63;94313.34;5004045;28;20081;-72
2022/01/12 00:23:20;;;;;;;10.73;6.10;;;;;;;-1.16;55.08;94325.94;5024166;28;20041;-73
2022/01/12 00:26:03;;;;;;;7.28;4.93;;;;;;;-0.90;54.05;94297.78;5023081;28;20040;-72
2022/01/12 00:34:07;;;;;;;9.73;5.03;;;;;;;0.00;52.04;94356.28;5021774;28;20434;-71
2022/01/12 00:36:33;;;;;;;6.47;4.07;;;;;;;0.06;51.68;94333.59;5019354;28;20512;-71
2022/01/12 00:38:59;;;;;;;9.32;4.57;;;;;;;-0.03;51.13;94329.78;5028049;28;20120;-72
2022/01/12 00:41:27;;;;;;;11.25;5.00;;;;;;;0.39;50.85;94354.59;5014383;28;20121;-73
2022/01/12 00:44:00;;;;;;;9.00;5.15;;;;;;;0.49;50.46;94353.97;5022993;28;20500;-72
2022/01/12 00:46:28;;;;;;;6.15;4.20;;;;;;;0.43;50.50;94347.84;5002797;28;20098;-73
2022/01/12 00:48:55;;;;;;;8.63;4.60;;;;;;;0.65;49.96;94353.97;5016929;28;20115;-74
2022/01/12 00:51:31;;;;;;;6.25;4.22;;;;;;;0.72;49.54;94354.59;5018350;28;20660;-74
2022/01/12 00:53:58;;;;;;;7.75;4.47;;;;;;;0.67;49.88;94354.53;5023881;28;20048;-74
2022/01/12 00:56:23;;;;;;;6.07;4.13;;;;;;;0.54;50.11;94347.00;5020198;28;20037;-72
2022/01/12 00:58:49;;;;;;;14.15;5.43;;;;;;;0.66;49.89;94347.69;5020554;28;20083;-74
2022/01/12 01:01:21;;;;;;;11.05;4.45;;;;;;;-0.20;51.04;94355.88;5025920;28;20806;-73
2022/01/12 01:03:47;;;;;;;8.57;4.35;;;;;;;0.24;50.18;94342.06;5009400;28;20047;-74
2022/01/12 01:06:19;;;;;;;8.32;4.57;;;;;;;0.53;50.22;94350.63;5021179;28;20049;-74
2022/01/12 01:08:48;;;;;;;12.07;5.10;;;;;;;0.62;50.06;94354.44;5006107;28;20048;-73
2022/01/12 01:11:13;;;;;;;8.98;5.28;;;;;;;0.47;49.85;94338.50;5018922;28;20052;-72
2022/01/12 01:13:59;;;;;;;9.57;5.05;;;;;;;0.49;49.87;94327.78;5020621;28;20481;-72
2022/01/12 01:27:17;;;;;;;9.23;4.53;;;;;;;0.17;50.50;94348.44;4971166;28;20082;-73
2022/01/12 01:29:42;;;;;;;7.95;4.15;;;;;;;0.08;50.39;94321.88;5032307;28;20038;-75
2022/01/12 01:32:12;;;;;;;7.40;4.35;;;;;;;-0.14;50.49;94350.50;5027100;28;20037;-73
2022/01/12 01:34:44;;;;;;;7.95;4.03;;;;;;;-0.86;52.19;94344.09;5027705;28;20111;-73
2022/01/12 01:37:10;;;;;;;6.80;4.03;;;;;;;-0.26;51.53;94321.00;5025254;28;20035;-72
2022/01/12 01:39:36;;;;;;;9.30;3.92;;;;;;;-0.11;51.32;94354.50;5022144;28;20297;-72
2022/01/12 01:42:07;;;;;;;7.55;4.43;;;;;;;0.16;50.78;94344.22;5024892;28;20044;-72
2022/01/12 01:55:18;;;;;;;6.00;4.25;;;;;;;-1.60;54.19;94358.59;5021267;28;20029;-73
2022/01/12 01:57:45;;;;;;;5.82;4.30;;;;;;;-1.01;53.66;94373.28;5023262;28;20042;-72
2022/01/12 02:00:15;;;;;;;9.63;5.03;;;;;;;-1.21;53.66;94365.00;5017363;28;20064;-72
2022/01/12 02:02:43;;;;;;;10.18;4.25;;;;;;;-0.86;52.80;94366.81;5029043;28;20059;-72
2022/01/12 02:05:09;;;;;;;9.07;4.70;;;;;;;-1.91;53.25;94346.63;5022413;28;20159;-72
2022/01/12 02:07:34;;;;;;;7.05;3.42;;;;;;;-2.34;55.30;94385.13;5028054;28;20433;-72
2022/01/12 02:10:00;;;;;;;5.90;3.35;;;;;;;-1.58;54.05;94368.81;5021611;28;20054;-73
2022/01/12 02:12:29;;;;;;;8.73;4.03;;;;;;;-1.52;53.88;94378.38;5017737;28;20623;-74
2022/01/12 02:14:56;;;;;;;9.00;4.50;;;;;;;-1.26;53.17;94328.34;5016004;28;20171;-73
2022/01/12 02:17:27;;;;;;;6.95;4.28;;;;;;;-0.60;52.47;94382.00;5023985;28;20128;-73
2022/01/12 02:36:29;;;;;;;7.47;3.72;;;;;;;-1.48;53.31;94406.38;5025070;28;20043;-74
2022/01/12 02:41:40;;;;;;;7.43;3.87;;;;;;;-2.62;55.04;94421.28;5017625;28;20861;-72
2022/01/12 02:54:42;;;;;;;7.97;4.28;;;;;;;-1.06;52.17;94414.94;5009831;28;20559;-73
2022/01/12 02:57:07;;;;;;;8.25;4.82;;;;;;;-1.30;51.46;94402.88;5017479;28;20040;-74
2022/01/12 02:59:33;;;;;;;7.35;4.55;;;;;;;-1.44;52.28;94414.56;5005422;28;20034;-73
2022/01/12 03:02:21;;;;;;;7.25;3.13;;;;;;;-1.25;52.69;94416.06;5013513;28;20037;-74
2022/01/12 03:05:11;;;;;;;5.00;3.25;;;;;;;-1.69;52.81;94440.78;5020783;28;20557;-72
2022/01/12 03:07:36;;;;;;;5.15;3.45;;;;;;;-1.27;52.44;94435.59;5018067;28;20520;-74
2022/01/12 03:10:04;;;;;;;6.45;3.75;;;;;;;-1.07;52.30;94444.69;5021214;28;20473;-74
2022/01/12 03:12:29;;;;;;;9.82;4.18;;;;;;;-2.06;52.91;94428.84;4991911;28;20541;-72
2022/01/12 03:14:54;;;;;;;6.63;4.05;;;;;;;-2.13;53.89;94451.59;5017620;28;20394;-73
2022/01/12 03:17:20;;;;;;;8.23;3.90;;;;;;;-3.14;55.00;94431.19;5028351;28;20091;-73
2022/01/12 03:19:46;;;;;;;6.97;4.10;;;;;;;-2.62;55.02;94455.13;5019559;28;20509;-72
2022/01/12 03:22:12;;;;;;;5.03;3.13;;;;;;;-3.02;55.92;94433.91;5028494;28;20036;-72
2022/01/12 03:24:38;;;;;;;9.13;4.55;;;;;;;-2.07;54.51;94440.28;5012481;28;20637;-73
2022/01/12 03:27:05;;;;;;;4.63;3.78;;;;;;;-1.80;53.58;94432.94;5001891;28;20119;-73
2022/01/12 03:29:30;;;;;;;4.40;3.15;;;;;;;-2.30;54.03;94427.94;5015646;28;20033;-72
2022/01/12 03:31:57;;;;;;;9.05;3.75;;;;;;;-1.70;53.93;94456.69;5021167;28;20053;-72
2022/01/12 03:34:26;;;;;;;5.35;3.58;;;;;;;-1.85;53.33;94457.06;5024742;28;20655;-72
2022/01/12 04:09:51;;;;;;;7.20;4.18;;;;;;;-0.52;49.78;94497.41;5011866;28;20060;-73
2022/01/12 04:12:16;;;;;;;5.25;4.57;;;;;;;-0.32;50.01;94509.34;5002801;28;20356;-72
2022/01/12 04:14:42;;;;;;;5.75;3.63;;;;;;;-0.26;50.12;94513.66;5015829;28;20037;-73
2022/01/12 04:17:08;;;;;;;8.93;3.97;;;;;;;-0.03;49.75;94505.78;5029602;28;20039;-73
2022/01/12 04:19:34;;;;;;;5.30;3.80;;;;;;;0.02;49.65;94502.47;5019594;28;20144;-72
2022/01/12 04:22:17;;;;;;;7.80;4.38;;;;;;;0.04;49.28;94500.44;5013353;28;20052;-71
2022/01/12 04:24:42;;;;;;;11.20;4.15;;;;;;;-0.21;49.40;94517.19;5024674;28;20505;-73
2022/01/12 04:27:08;;;;;;;7.70;3.85;;;;;;;-0.92;49.93;94499.06;5019534;28;20033;-74
2022/01/12 04:29:33;;;;;;;10.82;3.88;;;;;;;-0.04;49.36;94532.19;5000723;28;20068;-72
2022/01/12 04:31:59;;;;;;;6.45;3.35;;;;;;;-0.86;49.78;94519.06;5007598;28;20041;-72
2022/01/12 04:34:24;;;;;;;7.05;4.40;;;;;;;-1.28;50.58;94527.94;5017934;28;20112;-72
2022/01/12 04:36:49;;;;;;;6.43;4.20;;;;;;;-1.97;51.73;94511.75;5019985;28;20032;-71
2022/01/12 04:39:15;;;;;;;9.00;3.92;;;;;;;-2.47;53.15;94546.75;5019653;28;20065;-72
2022/01/12 04:41:42;;;;;;;6.35;4.30;;;;;;;-2.13;53.38;94527.97;5002631;28;20044;-73
2022/01/12 04:44:10;;;;;;;8.50;4.22;;;;;;;-1.75;52.58;94524.34;5019300;28;20764;-71
2022/01/12 04:46:51;;;;;;;9.13;4.78;;;;;;;-1.48;52.05;94478.63;5017264;28;20493;-72
2022/01/12 04:49:47;;;;;;;10.05;4.90;;;;;;;-1.58;52.49;94546.19;5025367;28;20036;-72
2022/01/12 04:52:12;;;;;;;9.07;4.57;;;;;;;-2.85;53.55;94552.88;5025029;28;20064;-71
2022/01/12 04:54:38;;;;;;;11.18;4.70;;;;;;;-3.18;55.16;94554.91;5014821;28;20132;-72
2022/01/12 04:57:04;;;;;;;6.18;3.40;;;;;;;-3.63;55.87;94541.97;5015836;28;20497;-72
2022/01/12 04:59:32;;;;;;;6.38;3.58;;;;;;;-3.23;55.89;94557.34;5024835;28;20064;-72
2022/01/12 05:02:11;;;;;;;5.93;3.53;;;;;;;-3.21;56.25;94565.72;5012974;28;21115;-71
2022/01/12 05:07:30;;;;;;;4.85;3.17;;;;;;;-4.11;57.03;94579.72;5010172;28;20431;-72
2022/01/12 05:12:52;;;;;;;4.60;3.55;;;;;;;-3.06;55.55;94571.44;4979189;28;20136;-72
2022/01/12 05:15:26;;;;;;;6.35;2.90;;;;;;;-2.81;56.05;94579.28;5020315;28;20115;-72
2022/01/12 05:17:51;;;;;;;8.32;3.97;;;;;;;-2.37;55.14;94580.94;5023539;28;20033;-72
2022/01/12 05:20:17;;;;;;;5.57;3.42;;;;;;;-1.98;54.12;94557.09;5009770;28;20725;-75
2022/01/12 05:22:56;;;;;;;4.25;3.33;;;;;;;-1.69;53.22;94596.47;5026780;28;20040;-73
2022/01/12 05:25:22;;;;;;;4.28;2.55;;;;;;;-1.74;52.44;94578.06;5024100;28;20481;-74
2022/01/12 05:27:48;;;;;;;6.82;3.78;;;;;;;-2.17;53.09;94594.56;5019495;28;20049;-75
2022/01/12 05:30:13;;;;;;;6.57;3.28;;;;;;;-2.62;53.59;94595.75;5020424;28;20530;-71
2022/01/12 05:32:39;;;;;;;5.32;3.15;;;;;;;-1.89;53.19;94607.91;5021406;28;20040;-72
2022/01/12 05:35:07;;;;;;;8.40;4.28;;;;;;;-2.53;53.12;94610.09;5024728;28;20071;-72
2022/01/12 05:37:32;;;;;;;6.97;4.05;;;;;;;-2.42;53.84;94612.03;5016487;28;20021;-75
2022/01/12 05:40:00;;;;;;;6.97;3.97;;;;;;;-2.28;52.98;94606.50;5037549;28;20389;-72
2022/01/12 05:42:26;;;;;;;8.45;4.82;;;;;;;-2.05;52.71;94613.72;5016087;28;20098;-72
2022/01/12 05:44:52;;;;;;;7.88;4.38;;;;;;;-1.59;52.12;94594.97;5023600;28;20036;-71
2022/01/12 05:47:34;;;;;;;6.07;3.83;;;;;;;-1.20;51.68;94617.16;5027845;28;20037;-72
2022/01/12 05:49:59;;;;;;;6.50;4.43;;;;;;;-1.97;52.27;94615.22;5020059;28;20048;-72
2022/01/12 05:52:24;;;;;;;7.57;4.85;;;;;;;-1.85;51.80;94598.66;5020513;28;20065;-76
2022/01/12 05:54:50;;;;;;;6.72;4.15;;;;;;;-1.29;51.48;94602.81;5033518;28;20044;-72
2022/01/12 05:57:15;;;;;;;9.43;3.83;;;;;;;-0.96;50.86;94607.59;5024422;28;20801;-72
2022/01/12 05:59:40;;;;;;;9.10;5.75;;;;;;;-0.72;50.44;94605.84;5018426;28;20037;-74
2022/01/12 06:02:06;;;;;;;5.20;4.40;;;;;;;-1.29;50.02;94612.47;5025071;28;20128;-72
2022/01/12 06:04:31;;;;;;;6.03;3.65;;;;;;;-0.62;50.06;94619.16;5010117;28;20920;-72
2022/01/12 06:07:01;;;;;;;11.57;6.03;;;;;;;-0.58;49.00;94609.88;5031698;28;20118;-75
2022/01/12 06:09:26;;;;;;;7.65;5.10;;;;;;;-0.58;48.90;94628.94;5015235;28;20049;-74
2022/01/12 06:11:52;;;;;;;9.48;5.60;;;;;;;-0.78;49.43;94625.06;5016478;28;20053;-72
2022/01/12 06:14:19;;;;;;;6.30;3.97;;;;;;;-0.39;49.34;94640.16;5010684;28;20037;-72
2022/01/12 06:16:44;;;;;;;5.15;3.88;;;;;;;-0.67;49.10;94637.34;5027515;28;20033;-72
2022/01/12 06:19:10;;;;;;;9.07;4.32;;;;;;;-0.58;49.21;94662.16;5023999;28;20075;-72
2022/01/12 06:21:35;;;;;;;8.27;4.43;;;;;;;-0.35;49.18;94656.97;5021918;28;20033;-72
2022/01/12 06:24:01;;;;;;;6.13;4.35;;;;;;;-0.31;48.01;94639.81;5024676;28;20044;-72
2022/01/12 06:26:27;;;;;;;9.18;4.72;;;;;;;-0.37;47.77;94622.41;5019236;28;20517;-73
2022/01/12 06:31:39;;;;;;;9.30;4.10;;;;;;;-2.85;52.50;94662.22;5010628;28;20389;-73
2022/01/12 06:34:04;;;;;;;8.38;4.57;;;;;;;-1.83;51.64;94653.19;5023839;28;20025;-73
2022/01/12 06:36:29;;;;;;;5.22;3.70;;;;;;;-1.29;50.49;94678.50;5028379;28;20030;-73
2022/01/12 06:38:55;;;;;;;14.00;6.10;;;;;;;-1.03;49.80;94680.81;5023077;28;20124;-74
2022/01/12 06:41:21;;;;;;;7.15;4.80;;;;;;;-1.17;49.70;94670.75;5028804;28;20036;-73
2022/01/12 06:43:47;;;;;;;7.00;4.30;;;;;;;-1.24;50.48;94672.63;5013426;28;20034;-74
2022/01/12 06:46:22;;;;;;;5.63;3.33;;;;;;;-0.71;49.71;94683.22;5028270;28;20033;-73
2022/01/12 06:48:48;;;;;;;11.00;4.75;;;;;;;-1.30;49.63;94686.56;5015978;28;20153;-72
2022/01/12 06:51:13;;;;;;;12.10;4.10;;;;;;;-2.05;51.08;94697.13;5022702;28;20048;-73
2022/01/12 06:53:39;;;;;;;10.10;5.43;;;;;;;-1.96;51.67;94698.47;5010392;28;20931;-73
2022/01/12 06:56:05;;;;;;;10.38;5.40;;;;;;;-2.13;51.28;94678.34;5017656;28;20089;-72
2022/01/12 06:58:30;;;;;;;5.05;3.38;;;;;;;-1.68;50.15;94686.75;5019534;28;20037;-74
2022/01/12 07:00:56;;;;;;;9.23;4.82;;;;;;;-1.01;48.55;94710.09;5019670;28;20029;-74
2022/01/12 07:03:21;;;;;;;5.00;3.60;;;;;;;-0.97;47.87;94690.38;5026377;28;20140;-72
2022/01/12 07:05:47;;;;;;;5.25;4.15;;;;;;;-1.42;49.23;94697.75;5023206;28;20577;-74
2022/01/12 07:08:13;;;;;;;7.70;4.13;;;;;;;-1.56;49.51;94718.97;5026371;28;20172;-73
2022/01/12 07:10:39;;;;;;;6.20;4.20;;;;;;;-2.16;50.85;94725.69;5027241;28;20052;-72
2022/01/12 07:13:05;;;;;;;5.10;3.40;;;;;;;-2.24;51.16;94703.28;5020844;28;20454;-73
2022/01/12 07:15:30;;;;;;;6.05;3.90;;;;;;;-1.56;50.21;94722.38;5023342;28;20041;-72
2022/01/12 07:18:02;;;;;;;6.43;3.70;;;;;;;-2.45;50.85;94727.09;5022737;28;20076;-73
2022/01/12 07:20:27;;;;;;;6.63;3.58;;;;;;;-2.07;51.25;94725.22;5008177;28;20080;-74
2022/01/12 07:22:53;;;;;;;7.30;4.82;;;;;;;-2.73;51.56;94710.00;5026079;28;20038;-74
2022/01/12 07:25:18;;;;;;;6.25;4.70;;;;;;;-3.24;53.25;94728.25;5018744;28;20037;-72
2022/01/12 07:27:43;;;;;;;8.20;5.13;;;;;;;-2.86;52.95;94709.28;5019274;28;20030;-72
2022/01/12 07:30:09;;;;;;;12.02;5.72;;;;;;;-3.26;53.87;94714.66;5027782;28;20355;-73
2022/01/12 07:32:35;;;;;;;6.75;3.80;;;;;;;-2.73;53.49;94743.06;5018508;28;20094;-72
2022/01/12 07:35:00;;;;;;;5.15;3.63;;;;;;;-3.29;53.40;94677.84;5004830;28;20067;-72
2022/01/12 07:37:26;;;;;;;6.80;3.75;;;;;;;-3.36;54.23;94755.09;5029826;28;20040;-72
2022/01/12 07:39:51;;;;;;;6.18;4.10;;;;;;;-3.81;55.06;94734.19;5014065;28;20021;-71
2022/01/12 07:42:17;;;;;;;7.38;4.28;;;;;;;-3.60;55.33;94752.16;5014071;28;20503;-73
2022/01/12 07:44:42;;;;;;;6.20;2.85;;;;;;;-3.45;54.93;94738.09;5021638;28;20042;-72
2022/01/12 07:47:07;;;;;;;5.88;4.10;;;;;;;-2.74;55.46;94737.06;5025897;28;20033;-73
2022/01/12 07:49:34;;;;;;;6.32;3.83;;;;;;;-2.29;53.79;94732.56;5027869;28;20127;-73
2022/01/12 07:52:00;;;;;;;7.93;4.30;;;;;;;-2.22;52.78;94753.38;5030822;28;20378;-72
2022/01/12 07:54:25;;;;;;;7.15;4.20;;;;;;;-1.97;52.03;94751.59;5001355;28;20033;-74
2022/01/12 07:56:51;;;;;;;7.88;4.65;;;;;;;-2.56;53.24;94752.00;5021234;28;20466;-73
2022/01/12 07:59:16;;;;;;;11.02;5.28;;;;;;;-2.66;53.66;94751.63;5013214;28;20799;-74
2022/01/12 08:01:42;;;;;;;7.53;3.22;;;;;;;-2.49;52.25;94772.81;5005581;28;20112;-74
2022/01/12 08:04:07;;;;;;;7.20;4.00;;;;;;;-1.50;50.33;94783.31;5021804;28;20080;-73
2022/01/12 08:06:33;;;;;;;6.10;3.55;;;;;;;-1.70;50.60;94772.25;5017818;28;20091;-74
2022/01/12 08:08:58;;;;;;;9.43;4.15;;;;;;;-2.45;52.32;94789.59;5008432;28;20045;-72
2022/01/12 08:11:23;;;;;;;5.70;3.60;;;;;;;-2.45;51.94;94782.59;5023440;28;20045;-73
2022/01/12 08:13:50;;;;;;;6.13;4.20;;;;;;;-3.01;52.24;94769.41;5022375;28;20043;-73
2022/01/12 08:16:16;;;;;;;3.65;2.97;;;;;;;-2.61;52.03;94798.69;5020584;28;20032;-73
2022/01/12 08:18:41;;;;;;;5.32;3.72;;;;;;;-2.91;53.46;94795.00;5027712;28;20600;-73
2022/01/12 08:21:07;;;;;;;7.68;4.60;;;;;;;-2.89;54.43;94795.59;5018162;28;20159;-74
2022/01/12 08:23:33;;;;;;;4.78;3.97;;;;;;;-1.98;52.64;94791.72;5021008;28;20043;-74
2022/01/12 08:25:59;;;;;;;10.18;4.78;;;;;;;-2.03;51.90;94773.31;5017189;28;21217;-73
2022/01/12 08:28:24;;;;;;;8.73;4.10;;;;;;;-2.35;51.98;94805.59;5029552;28;20799;-73
2022/01/12 08:30:50;;;;;;;5.80;3.88;;;;;;;-3.28;52.88;94806.94;5027250;28;20041;-73
2022/01/12 08:33:16;;;;;;;6.47;3.55;;;;;;;-3.33;52.56;94806.72;5015684;28;20037;-73
2022/01/12 08:35:42;;;;;;;5.72;3.33;;;;;;;-3.73;53.43;94817.16;5027152;28;20045;-73
2022/01/12 08:38:10;;;;;;;9.05;4.97;;;;;;;-3.12;53.26;94824.69;5009432;28;20037;-73
2022/01/12 08:40:41;;;;;;;11.35;4.38;;;;;;;-2.90;51.51;94787.00;5033275;28;20029;-72
2022/01/12 08:43:07;;;;;;;13.02;5.68;;;;;;;-2.88;52.18;94803.22;5023510;28;21094;-73
2022/01/12 08:45:33;;;;;;;8.98;4.40;;;;;;;-2.91;52.61;94785.41;5005000;28;20353;-72
2022/01/12 08:47:59;;;;;;;8.05;4.70;;;;;;;-3.35;53.10;94790.50;5024256;28;20072;-73
2022/01/12 08:50:28;;;;;;;5.97;3.45;;;;;;;-3.23;52.48;94807.13;5015736;28;20592;-73
2022/01/12 08:52:53;;;;;;;4.82;3.40;;;;;;;-3.50;52.30;94815.94;5019906;28;20059;-73
2022/01/12 08:55:21;;;;;;;3.95;2.92;;;;;;;-3.39;53.23;94813.53;5017128;28;20033;-73
2022/01/12 08:57:46;;;;;;;6.18;3.20;;;;;;;-3.17;52.43;94785.50;5023091;28;20052;-73
2022/01/12 09:00:13;;;;;;;7.53;3.90;;;;;;;-3.63;52.94;94793.34;5018792;28;20034;-72
2022/01/12 09:02:39;;;;;;;8.57;3.85;;;;;;;-3.73;53.75;94814.56;5004248;28;20596;-72
2022/01/12 09:05:06;;;;;;;6.18;3.58;;;;;;;-3.87;53.62;94812.97;5017952;28;20037;-72
2022/01/12 09:07:34;;;;;;;6.05;3.50;;;;;;;-3.79;54.16;94799.75;5017323;28;20031;-74
2022/01/12 09:10:00;;;;;;;7.65;4.00;;;;;;;-3.27;53.30;94816.34;5023323;28;20113;-71
2022/01/12 09:12:26;;;;;;;5.20;3.85;;;;;;;-3.37;53.35;94805.53;5002820;28;20080;-71
2022/01/12 09:14:55;;;;;;;3.55;3.15;;;;;;;-3.10;52.93;94790.66;4995124;28;20140;-73
2022/01/12 09:17:23;;;;;;;8.13;3.22;;;;;;;-2.79;51.18;94809.78;5028068;28;20517;-72
2022/01/12 09:19:49;;;;;;;8.52;3.58;;;;;;;-3.36;52.74;94807.91;5025865;28;20041;-72
2022/01/12 09:22:14;;;;;;;16.95;5.32;;;;;;;-2.67;52.61;94811.72;5019580;28;20325;-74
2022/01/12 09:24:42;;;;;;;3.88;3.30;;;;;;;-2.66;51.79;94800.31;5008801;28;20037;-74
2022/01/12 09:27:08;;;;;;;4.88;3.38;;;;;;;-2.95;51.42;94809.44;5024112;28;20041;-74
2022/01/12 09:29:33;;;;;;;4.47;2.95;;;;;;;-2.96;51.70;94808.63;5008965;28;20064;-73
2022/01/12 09:32:00;;;;;;;4.03;3.60;;;;;;;-3.00;51.54;94796.25;5010911;28;20160;-73
2022/01/12 09:34:25;;;;;;;5.07;4.00;;;;;;;-3.82;52.32;94776.78;5006368;28;20067;-73
2022/01/12 09:36:50;;;;;;;2.53;2.35;;;;;;;-3.75;52.41;94780.16;5020140;28;20055;-73
2022/01/12 09:39:16;;;;;;;6.30;3.45;;;;;;;-3.44;52.79;94804.75;5021312;28;20044;-73
2022/01/12 09:41:41;;;;;;;6.05;4.20;;;;;;;-2.93;52.53;94778.81;5001808;28;21113;-74
2022/01/12 09:44:07;;;;;;;3.03;2.63;;;;;;;-2.94;52.12;94813.66;5024620;28;20579;-74
2022/01/12 09:46:35;;;;;;;4.18;2.90;;;;;;;-2.68;51.48;94776.31;5019608;28;20417;-75
2022/01/12 09:49:03;;;;;;;3.08;2.58;;;;;;;-3.33;51.73;94778.13;5017854;28;20021;-72
2022/01/12 09:51:28;;;;;;;3.40;2.67;;;;;;;-3.82;52.33;94766.38;5011222;28;20033;-73
2022/01/12 09:53:55;;;;;;;4.47;2.63;;;;;;;-3.35;52.41;94795.72;5002307;28;20041;-73
2022/01/12 09:56:24;;;;;;;5.45;4.28;;;;;;;-3.65;53.45;94806.56;5028256;28;20608;-74
2022/01/12 09:58:51;;;;;;;2.28;1.77;;;;;;;-3.59;53.30;94791.94;5002264;28;20033;-75
2022/01/12 10:01:39;;;;;;;3.67;3.00;;;;;;;-3.67;53.47;94797.38;5025835;28;20713;-75
2022/01/12 10:04:15;;;;;;;4.00;2.70;;;;;;;-3.92;53.76;94810.16;5012329;28;20132;-74
2022/01/12 10:06:53;;;;;;;3.63;2.70;;;;;;;-4.12;54.50;94806.75;5024947;28;20594;-73
2022/01/12 10:09:46;;;;;;;3.70;2.60;;;;;;;-3.62;55.38;94800.97;5020280;28;20053;-73
2022/01/12 10:12:19;;;;;;;2.65;2.45;;;;;;;-3.74;54.50;94783.56;5023206;28;20044;-74
2022/01/12 10:14:49;;;;;;;3.72;2.70;;;;;;;-3.39;53.76;94815.34;5028079;28;20065;-74
2022/01/12 10:17:29;;;;;;;6.80;3.03;;;;;;;-3.33;54.81;94780.72;5028279;28;20037;-72
2022/01/12 10:20:19;;;;;;;4.80;3.08;;;;;;;-3.15;54.02;94819.91;5030846;28;20041;-73
2022/01/12 10:22:58;;;;;;;3.60;3.20;;;;;;;-3.52;52.78;94817.97;5035873;28;20036;-73
2022/01/12 10:25:26;;;;;;;4.47;3.20;;;;;;;-3.64;53.76;94804.75;5029250;28;20040;-73
2022/01/12 10:27:51;;;;;;;4.80;3.22;;;;;;;-3.82;52.96;94768.97;5027997;28;20052;-74
2022/01/12 10:30:26;;;;;;;2.50;2.30;;;;;;;-3.63;52.96;94765.56;5013048;28;20037;-74
2022/01/12 10:32:59;;;;;;;7.32;2.95;;;;;;;-3.04;52.11;94806.28;5007040;28;20029;-73
2022/01/12 10:35:26;;;;;;;7.25;3.83;;;;;;;-3.34;52.05;94784.31;5020783;28;20101;-74
2022/01/12 10:37:52;;;;;;;4.95;3.85;;;;;;;-3.90;52.96;94782.16;5025918;28;20339;-75
2022/01/12 10:40:17;;;;;;;6.35;4.30;;;;;;;-4.02;53.72;94783.78;5027253;28;20576;-74
2022/01/12 10:42:45;;;;;;;6.65;3.45;;;;;;;-3.76;53.56;94795.97;5020927;28;20036;-74
2022/01/12 10:45:11;;;;;;;7.85;3.42;;;;;;;-3.84;53.80;94711.19;5024701;28;20379;-73
2022/01/12 10:47:36;;;;;;;6.75;4.70;;;;;;;-3.68;53.29;94791.38;5025168;28;20045;-73
2022/01/12 10:50:10;;;;;;;4.35;2.97;;;;;;;-3.84;53.36;94796.16;5025752;28;20482;-74
2022/01/12 10:52:49;;;;;;;4.10;3.03;;;;;;;-3.76;53.67;94793.38;5027900;28;20033;-73
2022/01/12 10:55:17;;;;;;;4.03;3.38;;;;;;;-3.92;53.99;94794.56;5030643;28;20040;-73
2022/01/12 10:57:46;;;;;;;13.27;4.75;;;;;;;-3.49;53.83;94802.75;5026994;28;20037;-74
2022/01/12 11:00:25;;;;;;;5.75;3.70;;;;;;;-3.40;53.01;94798.94;5007815;28;20365;-72
2022/01/12 11:02:57;;;;;;;5.38;3.65;;;;;;;-3.79;53.46;94755.56;5015172;28;20045;-74
2022/01/12 11:05:27;;;;;;;7.72;3.83;;;;;;;-3.69;53.70;94800.16;5042333;28;20037;-74
2022/01/12 11:07:53;;;;;;;3.88;2.90;;;;;;;-3.49;52.39;94781.13;5038625;28;20777;-74
2022/01/12 11:10:20;;;;;;;3.08;2.60;;;;;;;-3.52;51.68;94782.34;5033827;28;20083;-74
2022/01/12 11:12:47;;;;;;;5.82;3.30;;;;;;;-3.14;51.09;94738.22;5039000;28;20063;-75
2022/01/12 11:15:16;;;;;;;5.20;3.38;;;;;;;-3.18;51.52;94773.47;5034561;28;20103;-74
2022/01/12 11:17:43;;;;;;;5.78;3.38;;;;;;;-2.58;51.07;94802.72;5042842;28;20097;-74
2022/01/12 11:20:16;;;;;;;10.10;4.60;;;;;;;-1.97;49.12;94769.84;5037873;28;20036;-75
2022/01/12 11:22:58;;;;;;;5.53;4.32;;;;;;;-1.64;48.67;94787.03;5025195;28;20113;-74
2022/01/12 11:25:25;;;;;;;6.22;2.40;;;;;;;-1.69;48.04;94773.84;5040453;28;20535;-75
2022/01/12 11:28:15;;;;;;;2.30;2.10;;;;;;;-2.01;48.42;94797.38;5035798;28;20048;-74
2022/01/12 11:30:53;;;;;;;4.35;3.05;;;;;;;-1.61;47.58;94791.84;5040675;28;20055;-75
2022/01/12 11:33:21;;;;;;;3.38;2.50;;;;;;;-1.55;47.20;94796.19;5032758;28;20041;-74
2022/01/12 11:35:54;;;;;;;9.48;5.28;;;;;;;-1.50;47.42;94793.75;5026509;28;20149;-74
2022/01/12 11:38:34;;;;;;;18.92;6.95;;;;;;;-1.50;47.08;94791.13;5021231;28;20029;-75
2022/01/12 11:41:15;;;;;;;13.27;6.45;;;;;;;-1.30;47.43;94798.78;5020868;28;20528;-74
2022/01/12 11:43:50;;;;;;;13.23;5.88;;;;;;;-0.98;47.87;94785.41;5024152;28;20036;-76
2022/01/12 11:46:23;;;;;;;8.98;3.55;;;;;;;-1.71;46.86;94807.19;5021355;28;20049;-73
2022/01/12 11:48:54;;;;;;;9.50;4.75;;;;;;;-1.94;47.82;94803.31;5022988;28;20041;-74
2022/01/12 11:51:34;;;;;;;5.30;3.55;;;;;;;-2.06;48.06;94791.97;5021816;28;20048;-74
2022/01/12 11:54:19;;;;;;;5.60;3.72;;;;;;;-2.48;48.28;94795.22;5021367;28;20594;-74
2022/01/12 11:56:55;;;;;;;4.80;3.43;;;;;;;-1.80;48.01;94798.03;5007023;28;20091;-75
2022/01/12 11:59:22;;;;;;;3.65;2.83;;;;;;;-2.28;47.79;94816.75;5002374;28;20563;-74
2022/01/12 12:01:53;;;;;;;2.83;2.63;;;;;;;-2.30;48.34;94822.19;5006407;28;20048;-75
2022/01/12 12:04:26;;;;;;;5.88;3.13;;;;;;;-2.06;48.08;94805.00;5015333;28;20087;-76
2022/01/12 12:07:23;;;;;;;5.50;2.97;;;;;;;-1.88;46.87;94814.72;5011571;28;20122;-76
2022/01/12 12:09:57;;;;;;;3.63;2.50;;;;;;;-1.49;46.49;94796.16;5006123;28;20049;-74
2022/01/12 12:12:27;;;;;;;2.58;2.08;;;;;;;-1.59;47.08;94813.28;5015473;28;20587;-76
2022/01/12 12:14:55;;;;;;;7.55;4.68;;;;;;;-1.63;46.91;94815.53;5023054;28;20167;-74
2022/01/12 12:17:22;;;;;;;4.10;2.50;;;;;;;-1.27;46.72;94809.63;5014802;28;20034;-74
2022/01/12 12:19:49;;;;;;;4.85;4.18;;;;;;;-1.59;46.54;94811.47;5018411;28;20505;-75
2022/01/12 12:22:25;;;;;;;2.70;2.17;;;;;;;-1.43;45.74;94817.97;5024526;28;20041;-75
2022/01/12 12:25:04;;;;;;;4.88;3.10;;;;;;;-0.99;45.09;94812.53;5018677;28;20041;-75
2022/01/12 12:27:31;;;;;;;5.63;3.17;;;;;;;-1.18;44.79;94808.31;5026123;28;20037;-74
2022/01/12 12:29:57;;;;;;;2.70;2.50;;;;;;;-1.62;46.37;94816.34;5019229;28;20083;-76
2022/01/12 12:32:41;;;;;;;3.47;2.25;;;;;;;-1.87;46.68;94804.09;5019064;28;20037;-73
2022/01/12 12:35:09;;;;;;;5.20;3.10;;;;;;;-1.77;46.75;94808.03;5020077;28;20069;-75
2022/01/12 12:37:47;;;;;;;5.65;3.25;;;;;;;-1.27;46.42;94799.16;5015396;28;20029;-75
2022/01/12 12:40:19;;;;;;;6.10;2.97;;;;;;;-0.85;46.53;94792.28;5015653;28;20963;-75
2022/01/12 12:43:06;;;;;;;4.85;3.20;;;;;;;-1.19;46.03;94785.03;5017262;28;20056;-75
2022/01/12 12:45:44;;;;;;;3.22;2.80;;;;;;;-0.34;45.03;94802.34;5012580;28;20037;-76
2022/01/12 12:48:19;;;;;;;3.72;2.38;;;;;;;-0.23;43.29;94754.50;5013400;28;20246;-74
2022/01/12 12:50:47;;;;;;;3.58;2.67;;;;;;;0.13;44.09;94790.19;5023416;28;20030;-75
2022/01/12 12:53:14;;;;;;;8.60;3.47;;;;;;;-0.10;43.78;94801.41;5020872;28;20556;-76
2022/01/12 12:55:42;;;;;;;5.22;3.42;;;;;;;-1.04;45.14;94806.38;5041164;28;20025;-75
2022/01/12 12:58:09;;;;;;;6.20;4.00;;;;;;;-0.91;45.14;94792.34;5024287;28;20512;-75
2022/01/12 13:00:37;;;;;;;5.53;3.30;;;;;;;-0.99;45.51;94793.47;5022411;28;20216;-75
2022/01/12 13:03:05;;;;;;;13.82;5.95;;;;;;;-0.55;44.32;94784.50;5026460;28;20037;-75
2022/01/12 13:05:33;;;;;;;4.93;3.08;;;;;;;-0.67;44.11;94794.88;5014992;28;20631;-75
2022/01/12 13:07:58;;;;;;;8.00;3.00;;;;;;;-1.16;44.92;94803.66;5035347;28;20044;-75
2022/01/12 13:10:30;;;;;;;3.60;3.08;;;;;;;-1.17;45.60;94799.47;5024495;28;20477;-74
2022/01/12 13:12:59;;;;;;;4.85;3.88;;;;;;;-1.63;45.17;94812.91;5023457;28;20037;-74
2022/01/12 13:15:36;;;;;;;6.70;3.25;;;;;;;-1.30;45.15;94804.00;5002377;28;20040;-74
2022/01/12 13:18:18;;;;;;;9.05;4.15;;;;;;;-1.67;45.20;94811.75;5013655;28;20036;-74
2022/01/12 13:21:08;;;;;;;8.32;5.50;;;;;;;-1.96;46.26;94815.78;5020807;28;20087;-74